createdAt,value
2023-05-05T00:01:46.110Z,37.87
2023-05-05T00:07:34.605Z,37.94
2023-05-05T00:13:17.096Z,37.85
2023-05-05T00:18:35.962Z,37.89
2023-05-05T00:23:50.853Z,37.87
2023-05-05T00:28:51.990Z,37.79
2023-05-05T00:34:06.446Z,37.74
2023-05-05T00:39:21.265Z,37.76
2023-05-05T00:44:33.154Z,37.72
2023-05-05T00:49:47.616Z,37.79
2023-05-05T00:55:05.812Z,37.92
2023-05-05T01:00:20.161Z,37.96
2023-05-05T01:05:47.941Z,37.95
2023-05-05T01:10:47.276Z,38.02
2023-05-05T01:16:19.748Z,38.03
2023-05-05T01:21:53.201Z,38.01
2023-05-05T01:32:30.001Z,38.02
2023-05-05T01:37:42.148Z,38.00
2023-05-05T01:39:22.772Z,38.08
2023-05-05T01:42:57.509Z,38.09
2023-05-05T01:52:56.909Z,38.06
2023-05-05T02:00:12.780Z,38.04
2023-05-05T02:05:29.579Z,37.96
2023-05-05T02:10:48.191Z,37.93
2023-05-05T02:15:55.920Z,37.92
2023-05-05T02:21:21.861Z,37.95
2023-05-05T02:26:29.525Z,38.01
2023-05-05T02:31:44.283Z,38.01
2023-05-05T02:37:01.851Z,37.91
2023-05-05T02:42:13.911Z,38.00
2023-05-05T02:47:18.522Z,37.90
2023-05-05T02:52:29.374Z,37.65
2023-05-05T02:58:27.115Z,37.51
2023-05-05T03:03:57.484Z,37.84
2023-05-05T03:09:00.122Z,37.36
2023-05-05T03:14:07.757Z,37.36
2023-05-05T03:19:15.346Z,37.20
2023-05-05T03:24:49.813Z,37.69
2023-05-05T03:29:55.911Z,37.50
2023-05-05T03:35:00.408Z,37.30
2023-05-05T03:40:29.682Z,37.39
2023-05-05T03:45:29.361Z,37.03
2023-05-05T03:50:37.483Z,37.68
2023-05-05T03:55:45.184Z,37.61
2023-05-05T04:00:52.951Z,37.53
2023-05-05T04:06:00.390Z,37.62
2023-05-05T04:11:09.482Z,37.59
2023-05-05T04:16:16.963Z,37.49
2023-05-05T04:21:24.375Z,37.37
2023-05-05T04:26:31.783Z,37.48
2023-05-05T04:31:39.347Z,37.60
2023-05-05T04:36:50.165Z,37.51
2023-05-05T04:42:03.054Z,37.47
2023-05-05T04:47:13.215Z,37.47
2023-05-05T04:52:18.192Z,37.51
2023-05-05T04:57:25.532Z,37.47
2023-05-05T05:02:33.089Z,37.46
2023-05-05T05:07:40.523Z,37.58
2023-05-05T05:12:48.067Z,37.59
2023-05-05T05:17:56.190Z,37.72
2023-05-05T05:23:03.520Z,37.75
2023-05-05T05:28:11.230Z,37.76
2023-05-05T05:33:27.236Z,37.48
2023-05-05T05:38:35.312Z,37.44
2023-05-05T05:43:42.990Z,37.71
2023-05-05T05:48:50.559Z,37.71
2023-05-05T05:53:58.963Z,37.66
2023-05-05T05:59:05.576Z,37.62
2023-05-05T06:04:13.298Z,37.72
2023-05-05T06:09:20.574Z,37.91
2023-05-05T06:14:28.087Z,37.89
2023-05-05T06:19:46.381Z,37.89
2023-05-05T06:24:58.586Z,37.84
2023-05-05T06:30:09.448Z,37.72
2023-05-05T06:35:49.330Z,37.95
2023-05-05T06:41:09.346Z,37.95
2023-05-05T06:46:15.705Z,37.95
2023-05-05T06:51:23.247Z,38.00
2023-05-05T06:56:30.601Z,37.97
2023-05-05T07:01:37.992Z,38.02
2023-05-05T07:06:45.539Z,38.19
2023-05-05T07:12:13.526Z,39.08
2023-05-05T07:17:53.301Z,38.92
2023-05-05T07:23:36.041Z,38.92
2023-05-05T07:29:38.391Z,38.76
2023-05-05T07:40:31.629Z,38.60
2023-05-05T07:46:14.643Z,38.44
2023-05-05T07:52:07.393Z,38.44
2023-05-05T07:58:59.568Z,38.42
2023-05-05T08:03:13.097Z,38.39
2023-05-05T08:14:49.446Z,38.48
2023-05-05T08:20:36.908Z,38.76
2023-05-05T08:26:42.482Z,39.47
2023-05-05T08:34:51.830Z,38.93
2023-05-05T08:38:40.815Z,38.72
2023-05-05T08:44:46.131Z,38.68
2023-05-05T08:50:29.016Z,38.87
2023-05-05T08:56:26.736Z,39.26
2023-05-05T09:08:13.000Z,38.97
2023-05-05T09:13:25.389Z,39.01
2023-05-05T09:19:13.514Z,39.06
2023-05-05T09:29:42.520Z,39.26
2023-05-05T09:30:35.190Z,39.45
2023-05-05T09:35:46.211Z,39.41
2023-05-05T09:41:08.924Z,39.35
2023-05-05T09:46:57.425Z,39.41
2023-05-05T09:53:01.342Z,39.40
2023-05-05T09:58:02.167Z,39.46
2023-05-05T10:03:17.452Z,39.49
2023-05-05T10:09:59.769Z,39.58
2023-05-05T10:14:08.469Z,39.61
2023-05-05T10:19:29.700Z,39.55
2023-05-05T10:40:49.949Z,39.78
2023-05-05T10:46:06.808Z,39.78
2023-05-05T10:52:39.926Z,39.83
2023-05-05T10:57:42.725Z,39.77
2023-05-05T11:03:32.403Z,39.79
2023-05-05T11:08:50.806Z,39.78
2023-05-05T11:14:38.120Z,39.79
2023-05-05T11:20:25.725Z,39.82
2023-05-05T11:25:41.003Z,39.81
2023-05-05T11:31:23.641Z,39.80
2023-05-05T11:37:10.703Z,39.69
2023-05-05T11:42:16.056Z,39.75
2023-05-05T11:48:02.142Z,39.66
2023-05-05T11:53:59.456Z,39.68
2023-05-05T11:59:45.209Z,39.56
2023-05-05T12:05:11.670Z,39.60
2023-05-05T12:10:17.208Z,39.56
2023-05-05T12:16:45.760Z,39.58
2023-05-05T12:28:29.700Z,39.46
2023-05-05T12:34:14.497Z,39.37
2023-05-05T12:40:12.082Z,39.32
2023-05-05T12:46:41.953Z,39.25
2023-05-05T12:52:31.835Z,39.21
2023-05-05T12:58:17.580Z,39.13
2023-05-05T13:04:55.377Z,39.06
2023-05-05T13:09:55.810Z,39.05
2023-05-05T13:15:42.773Z,39.01
2023-05-05T13:21:26.945Z,39.01
2023-05-05T13:27:39.119Z,39.01
2023-05-05T13:33:21.056Z,38.99
2023-05-05T13:39:03.892Z,38.97
2023-05-05T13:44:36.674Z,38.95
2023-05-05T13:52:24.787Z,38.91
2023-05-05T13:58:12.216Z,38.90
2023-05-05T14:04:13.416Z,38.89
2023-05-05T14:09:56.418Z,38.89
2023-05-05T14:15:49.008Z,38.88
2023-05-05T14:21:10.491Z,38.87
2023-05-05T14:26:46.792Z,38.88
2023-05-05T14:31:44.825Z,38.87
2023-05-05T14:37:14.542Z,38.86
2023-05-05T14:42:44.704Z,38.87
2023-05-05T14:48:06.845Z,38.89
2023-05-05T14:54:27.561Z,38.89
2023-05-05T14:59:11.872Z,38.91
2023-05-05T15:04:19.129Z,38.94
2023-05-05T15:09:51.691Z,38.95
2023-05-05T15:15:24.990Z,38.92
2023-05-05T15:21:04.677Z,38.94
2023-05-05T15:26:42.075Z,38.94
2023-05-05T15:32:39.815Z,38.94
2023-05-05T15:37:52.346Z,38.93
2023-05-05T15:43:36.823Z,38.94
2023-05-05T15:49:19.210Z,39.00
2023-05-05T16:01:14.064Z,39.01
2023-05-05T16:06:43.336Z,38.99
2023-05-05T16:11:56.306Z,39.15
2023-05-05T16:17:38.581Z,39.05
2023-05-05T16:28:42.041Z,39.02
2023-05-05T16:34:32.474Z,39.09
2023-05-05T16:40:24.011Z,39.11
2023-05-05T16:46:06.510Z,39.48
2023-05-05T16:51:53.815Z,40.02
2023-05-05T17:00:08.176Z,42.92
2023-05-05T17:05:56.166Z,43.38
2023-05-05T17:11:13.762Z,45.21
2023-05-05T17:16:59.829Z,44.51
2023-05-05T17:33:50.043Z,41.84
2023-05-05T17:39:36.768Z,41.53
2023-05-05T17:50:42.654Z,42.63
2023-05-05T17:56:03.547Z,42.89
2023-05-05T18:01:50.794Z,42.77
2023-05-05T18:13:10.177Z,43.02
2023-05-05T18:18:57.152Z,43.57
2023-05-05T18:24:20.027Z,43.42
2023-05-05T18:30:06.561Z,43.20
2023-05-05T18:36:01.340Z,42.80
2023-05-05T18:40:52.265Z,43.40
2023-05-05T18:47:34.560Z,43.46
2023-05-05T18:52:00.935Z,43.24
2023-05-05T18:57:45.222Z,42.77
2023-05-05T19:04:34.323Z,42.22
2023-05-05T19:09:39.459Z,42.34
2023-05-05T19:14:56.459Z,42.53
2023-05-05T19:20:53.169Z,41.98
2023-05-05T19:26:08.821Z,41.84
2023-05-05T19:32:27.878Z,41.77
2023-05-05T19:43:38.279Z,42.27
2023-05-05T19:48:46.054Z,42.32
2023-05-05T19:53:53.683Z,41.98
2023-05-05T19:59:01.907Z,41.93
2023-05-05T20:04:09.776Z,41.79
2023-05-05T20:09:17.550Z,43.50
2023-05-05T20:14:25.360Z,43.31
2023-05-05T20:19:33.193Z,45.11
2023-05-05T20:24:41.004Z,43.55
2023-05-05T20:29:48.779Z,43.00
2023-05-05T20:34:56.559Z,42.34
2023-05-05T20:40:04.097Z,42.50
2023-05-05T20:45:12.628Z,41.91
2023-05-05T20:50:20.201Z,41.79
2023-05-05T20:55:27.573Z,41.73
2023-05-05T21:00:35.099Z,41.54
2023-05-05T21:05:42.929Z,41.68
2023-05-05T21:10:50.201Z,41.68
2023-05-05T21:15:57.602Z,41.50
2023-05-05T21:21:06.168Z,41.19
2023-05-05T21:26:16.844Z,41.06
2023-05-05T21:31:23.551Z,40.84
2023-05-05T21:36:30.931Z,40.67
2023-05-05T21:41:41.081Z,40.86
2023-05-05T21:46:46.926Z,40.40
2023-05-05T21:51:53.989Z,40.38
2023-05-05T21:57:10.242Z,40.25
2023-05-05T22:02:17.713Z,40.11
2023-05-05T22:07:24.827Z,40.14
2023-05-05T22:12:32.329Z,39.88
2023-05-05T22:17:39.755Z,39.51
2023-05-05T22:22:46.970Z,39.73
2023-05-05T22:27:54.377Z,39.73
2023-05-05T22:33:01.995Z,39.73
2023-05-05T22:38:09.484Z,39.62
2023-05-05T22:43:16.839Z,39.48
2023-05-05T22:48:25.249Z,39.50
2023-05-05T22:53:32.661Z,39.38
2023-05-05T23:04:06.878Z,39.84
2023-05-05T23:26:37.133Z,40.44
2023-05-05T23:32:01.783Z,40.46
2023-05-05T23:38:08.402Z,40.60
2023-05-05T23:52:08.175Z,40.73
2023-05-05T23:53:09.789Z,40.80
